createdAt,value
2022-11-28T00:01:29.533Z,10.30
2022-11-28T00:03:57.538Z,14.40
2022-11-28T00:06:26.526Z,7.90
2022-11-28T00:08:54.908Z,11.20
2022-11-28T00:11:24.127Z,10.33
2022-11-28T00:13:52.139Z,9.40
2022-11-28T00:16:22.600Z,8.23
2022-11-28T00:18:51.573Z,8.80
2022-11-28T00:21:20.273Z,8.27
2022-11-28T00:23:49.565Z,9.00
2022-11-28T00:26:20.350Z,9.20
2022-11-28T00:28:49.919Z,7.83
2022-11-28T00:31:20.522Z,8.10
2022-11-28T00:33:49.138Z,10.30
2022-11-28T00:36:17.340Z,8.93
2022-11-28T00:38:45.468Z,9.97
2022-11-28T00:41:15.196Z,8.00
2022-11-28T00:43:44.617Z,7.43
2022-11-28T00:46:15.461Z,11.93
2022-11-28T00:48:44.105Z,8.73
2022-11-28T00:51:14.235Z,7.97
2022-11-28T00:53:43.428Z,9.43
2022-11-28T00:56:13.153Z,8.87
2022-11-28T00:58:41.923Z,8.60
2022-11-28T01:01:10.875Z,8.43
2022-11-28T01:03:40.661Z,7.33
2022-11-28T01:06:09.520Z,11.23
2022-11-28T01:08:37.551Z,10.33
2022-11-28T01:11:06.011Z,7.03
2022-11-28T01:13:33.896Z,8.20
2022-11-28T01:16:01.779Z,10.17
2022-11-28T01:18:29.707Z,9.57
2022-11-28T01:20:59.199Z,9.93
2022-11-28T01:23:27.092Z,10.83
2022-11-28T01:25:55.008Z,9.33
2022-11-28T01:28:23.008Z,9.13
2022-11-28T01:30:50.959Z,12.53
2022-11-28T01:33:18.834Z,8.00
2022-11-28T01:35:55.662Z,9.30
2022-11-28T01:38:25.275Z,8.00
2022-11-28T01:40:53.789Z,8.70
2022-11-28T01:43:22.799Z,8.20
2022-11-28T01:45:50.880Z,8.10
2022-11-28T01:48:24.242Z,7.27
2022-11-28T01:50:56.464Z,7.80
2022-11-28T01:53:30.017Z,7.23
2022-11-28T01:56:03.075Z,10.87
2022-11-28T01:58:33.655Z,9.47
2022-11-28T02:01:01.989Z,8.33
2022-11-28T02:03:35.336Z,11.50
2022-11-28T02:06:03.887Z,8.93
2022-11-28T02:08:36.136Z,12.73
2022-11-28T02:11:20.337Z,14.20
2022-11-28T02:13:55.550Z,9.73
2022-11-28T02:16:47.152Z,9.27
2022-11-28T02:19:41.070Z,10.27
2022-11-28T02:22:17.517Z,8.80
2022-11-28T02:25:15.790Z,11.53
2022-11-28T02:28:20.955Z,9.10
2022-11-28T02:31:00.821Z,12.17
2022-11-28T02:33:32.923Z,7.90
2022-11-28T02:36:12.730Z,7.83
2022-11-28T02:38:52.741Z,5.93
2022-11-28T02:41:31.387Z,6.60
2022-11-28T02:44:04.842Z,7.60
2022-11-28T02:46:38.701Z,6.40
2022-11-28T02:49:12.738Z,5.87
2022-11-28T02:51:44.569Z,6.80
2022-11-28T02:54:15.913Z,10.00
2022-11-28T02:56:48.571Z,8.10
2022-11-28T02:59:34.641Z,6.60
2022-11-28T03:02:03.137Z,6.17
2022-11-28T03:04:45.129Z,7.50
2022-11-28T03:07:26.891Z,4.80
2022-11-28T03:10:04.438Z,5.10
2022-11-28T03:12:45.165Z,8.90
2022-11-28T03:15:15.474Z,4.20
2022-11-28T03:17:54.006Z,5.67
2022-11-28T03:20:29.640Z,6.07
2022-11-28T03:23:09.250Z,3.90
2022-11-28T03:25:45.743Z,4.03
2022-11-28T03:28:17.433Z,5.70
2022-11-28T03:30:50.135Z,4.80
2022-11-28T03:33:21.228Z,7.20
2022-11-28T03:35:55.498Z,5.23
2022-11-28T03:38:28.298Z,3.50
2022-11-28T03:41:01.536Z,4.90
2022-11-28T03:43:35.758Z,3.23
2022-11-28T03:46:08.213Z,6.30
2022-11-28T03:48:40.867Z,6.37
2022-11-28T03:51:13.759Z,4.03
2022-11-28T03:53:54.888Z,4.27
2022-11-28T03:56:27.512Z,3.33
2022-11-28T03:58:59.111Z,4.13
2022-11-28T04:01:33.291Z,4.03
2022-11-28T04:04:12.216Z,5.67
2022-11-28T04:06:54.183Z,3.90
2022-11-28T04:09:31.703Z,4.30
2022-11-28T04:12:08.931Z,3.60
2022-11-28T04:14:42.883Z,3.60
2022-11-28T04:17:16.692Z,3.80
2022-11-28T04:19:50.757Z,3.90
2022-11-28T04:22:24.280Z,2.93
2022-11-28T04:24:56.101Z,6.27
2022-11-28T04:27:28.428Z,3.30
2022-11-28T04:29:59.703Z,3.63
2022-11-28T04:32:29.720Z,3.50
2022-11-28T04:35:02.507Z,3.70
2022-11-28T04:37:34.218Z,5.80
2022-11-28T04:40:02.854Z,4.27
2022-11-28T04:42:34.677Z,3.13
2022-11-28T04:45:07.473Z,3.87
2022-11-28T04:47:35.452Z,4.23
2022-11-28T04:50:03.400Z,7.73
2022-11-28T04:52:38.105Z,5.37
2022-11-28T04:55:13.067Z,8.53
2022-11-28T04:57:43.770Z,3.30
2022-11-28T05:00:14.881Z,4.10
2022-11-28T05:02:44.853Z,3.30
2022-11-28T05:05:16.130Z,4.00
2022-11-28T05:07:45.637Z,2.73
2022-11-28T05:10:15.282Z,2.90
2022-11-28T05:12:43.866Z,5.07
2022-11-28T05:15:12.497Z,4.37
2022-11-28T05:17:42.460Z,3.00
2022-11-28T05:20:11.257Z,4.60
2022-11-28T05:22:39.198Z,2.50
2022-11-28T05:25:09.131Z,6.80
2022-11-28T05:27:37.360Z,3.07
2022-11-28T05:30:07.083Z,4.07
2022-11-28T05:32:36.297Z,4.50
2022-11-28T05:35:05.520Z,4.50
2022-11-28T05:37:33.656Z,2.30
2022-11-28T05:40:01.545Z,3.07
2022-11-28T05:42:33.758Z,3.10
2022-11-28T05:45:02.072Z,5.00
2022-11-28T05:47:31.762Z,3.33
2022-11-28T05:49:59.710Z,3.40
2022-11-28T05:52:32.147Z,3.20
2022-11-28T05:55:01.534Z,2.77
2022-11-28T05:57:32.812Z,2.60
2022-11-28T06:00:00.690Z,3.67
2022-11-28T06:02:28.682Z,4.23
2022-11-28T06:04:56.715Z,2.27
2022-11-28T06:07:24.681Z,3.40
2022-11-28T06:09:52.568Z,5.30
2022-11-28T06:12:20.454Z,4.50
2022-11-28T06:14:49.720Z,3.93
2022-11-28T06:17:17.592Z,5.80
2022-11-28T06:19:47.210Z,4.83
2022-11-28T06:22:15.101Z,2.60
2022-11-28T06:24:43.135Z,3.10
2022-11-28T06:27:11.076Z,4.93
2022-11-28T06:29:38.947Z,5.13
2022-11-28T06:32:08.486Z,3.83
2022-11-28T06:34:36.502Z,3.60
2022-11-28T06:37:04.381Z,4.90
2022-11-28T06:39:32.510Z,4.00
2022-11-28T06:42:00.382Z,5.97
2022-11-28T06:44:28.257Z,4.10
2022-11-28T06:46:56.250Z,2.90
2022-11-28T06:49:25.473Z,4.33
2022-11-28T06:51:53.388Z,4.30
2022-11-28T06:54:21.493Z,3.33
2022-11-28T06:56:49.463Z,3.10
2022-11-28T06:59:17.444Z,4.30
2022-11-28T07:01:45.573Z,4.10
2022-11-28T07:04:13.576Z,4.87
2022-11-28T07:06:44.695Z,3.80
2022-11-28T07:09:12.574Z,6.83
2022-11-28T07:11:42.569Z,5.20
2022-11-28T07:14:11.008Z,2.80
2022-11-28T07:16:39.266Z,3.60
2022-11-28T07:19:07.214Z,3.40
2022-11-28T07:21:35.110Z,3.70
2022-11-28T07:24:04.569Z,3.87
2022-11-28T07:26:32.495Z,2.00
2022-11-28T07:29:00.684Z,3.70
2022-11-28T07:31:32.252Z,3.23
2022-11-28T07:34:02.178Z,2.53
2022-11-28T07:36:30.487Z,3.87
2022-11-28T07:39:00.614Z,3.20
2022-11-28T07:41:30.259Z,2.83
2022-11-28T07:43:59.802Z,3.30
2022-11-28T07:46:29.820Z,4.07
2022-11-28T07:48:57.826Z,2.83
2022-11-28T07:51:27.513Z,4.70
2022-11-28T07:53:55.795Z,2.83
2022-11-28T07:56:25.548Z,3.23
2022-11-28T07:58:57.952Z,5.60
2022-11-28T08:01:31.114Z,3.07
2022-11-28T08:03:59.326Z,3.30
2022-11-28T08:06:29.150Z,3.90
2022-11-28T08:08:58.712Z,3.07
2022-11-28T08:11:28.412Z,2.70
2022-11-28T08:13:59.328Z,2.80
2022-11-28T08:16:29.237Z,3.40
2022-11-28T08:18:58.412Z,2.70
2022-11-28T08:21:28.100Z,2.43
2022-11-28T08:23:59.219Z,5.00
2022-11-28T08:26:30.642Z,4.77
2022-11-28T08:29:01.247Z,2.90
2022-11-28T08:31:31.454Z,3.60
2022-11-28T08:34:01.049Z,4.23
2022-11-28T08:36:29.736Z,3.50
2022-11-28T08:39:09.903Z,3.70
2022-11-28T08:41:46.141Z,2.93
2022-11-28T08:44:16.135Z,3.70
2022-11-28T08:46:44.056Z,4.23
2022-11-28T08:49:11.936Z,5.93
2022-11-28T08:51:39.828Z,3.80
2022-11-28T08:54:07.783Z,3.77
2022-11-28T08:56:35.690Z,3.43
2022-11-28T08:59:03.870Z,2.63
2022-11-28T09:01:33.185Z,2.17
2022-11-28T09:04:01.784Z,3.30
2022-11-28T09:06:29.805Z,2.83
2022-11-28T09:08:58.755Z,3.90
2022-11-28T09:11:26.629Z,6.33
2022-11-28T09:13:55.690Z,2.03
2022-11-28T09:16:23.958Z,5.03
2022-11-28T09:18:53.211Z,3.47
2022-11-28T09:21:21.098Z,2.80
2022-11-28T09:23:49.037Z,3.33
2022-11-28T09:26:18.883Z,3.50
2022-11-28T09:28:46.976Z,3.73
2022-11-28T09:31:15.956Z,3.00
2022-11-28T09:33:43.946Z,5.07
2022-11-28T09:36:15.304Z,2.73
2022-11-28T09:38:43.185Z,3.10
2022-11-28T09:41:38.971Z,2.43
2022-11-28T09:44:14.967Z,3.03
2022-11-28T09:46:43.731Z,3.40
2022-11-28T09:49:36.781Z,2.50
2022-11-28T09:52:20.803Z,3.57
2022-11-28T09:54:52.595Z,2.70
2022-11-28T09:57:35.352Z,3.53
2022-11-28T10:00:05.175Z,2.50
2022-11-28T10:02:42.031Z,3.27
2022-11-28T10:05:18.785Z,3.80
2022-11-28T10:08:01.043Z,3.40
2022-11-28T10:10:37.510Z,3.40
2022-11-28T10:13:17.289Z,2.47
2022-11-28T10:15:56.480Z,2.23
2022-11-28T10:18:35.152Z,3.10
2022-11-28T10:21:09.624Z,5.43
2022-11-28T10:23:43.208Z,3.53
2022-11-28T10:26:17.889Z,8.73
2022-11-28T10:28:49.351Z,5.97
2022-11-28T10:31:23.297Z,3.97
2022-11-28T10:33:57.064Z,5.33
2022-11-28T10:36:29.238Z,5.93
2022-11-28T10:38:58.704Z,4.60
2022-11-28T10:41:33.195Z,4.20
2022-11-28T10:44:06.660Z,4.73
2022-11-28T10:46:58.379Z,5.80
2022-11-28T10:49:35.539Z,6.67
2022-11-28T10:52:12.900Z,6.30
2022-11-28T10:54:54.184Z,6.17
2022-11-28T10:57:29.436Z,7.57
2022-11-28T11:00:04.040Z,6.20
2022-11-28T11:02:39.002Z,6.50
2022-11-28T11:05:08.436Z,5.70
2022-11-28T11:07:36.458Z,8.67
2022-11-28T11:10:16.364Z,8.53
2022-11-28T11:12:44.984Z,6.23
2022-11-28T11:15:19.389Z,8.83
2022-11-28T11:17:47.383Z,6.60
2022-11-28T11:20:31.347Z,6.10
2022-11-28T11:23:01.609Z,5.67
2022-11-28T11:25:32.725Z,6.50
2022-11-28T11:28:04.313Z,6.47
2022-11-28T11:30:35.771Z,7.90
2022-11-28T11:33:06.719Z,6.40
2022-11-28T11:35:42.840Z,5.73
2022-11-28T11:38:19.429Z,6.33
2022-11-28T11:40:49.503Z,6.17
2022-11-28T11:43:29.133Z,7.00
2022-11-28T11:46:07.992Z,6.73
2022-11-28T11:48:37.732Z,8.10
2022-11-28T11:51:06.379Z,5.77
2022-11-28T11:53:34.273Z,5.90
2022-11-28T11:56:05.214Z,5.30
2022-11-28T11:58:40.613Z,5.37
2022-11-28T12:01:09.760Z,6.13
2022-11-28T12:03:42.386Z,5.83
2022-11-28T12:06:15.394Z,5.83
2022-11-28T12:08:49.218Z,3.40
2022-11-28T12:11:22.807Z,3.20
2022-11-28T12:13:51.905Z,4.50
2022-11-28T12:16:39.855Z,4.37
2022-11-28T12:19:17.774Z,4.40
2022-11-28T12:22:06.917Z,4.33
2022-11-28T12:24:42.756Z,4.53
2022-11-28T12:27:28.322Z,4.80
2022-11-28T12:30:17.114Z,3.80
2022-11-28T12:32:53.990Z,4.20
2022-11-28T12:35:32.426Z,2.47
2022-11-28T12:38:11.873Z,3.10
2022-11-28T12:40:56.216Z,3.50
2022-11-28T12:43:39.102Z,2.43
2022-11-28T12:46:13.334Z,7.70
2022-11-28T12:48:54.892Z,2.93
2022-11-28T12:51:32.601Z,4.10
2022-11-28T12:54:22.384Z,3.20
2022-11-28T12:56:58.221Z,3.10
2022-11-28T12:59:36.081Z,3.70
2022-11-28T13:02:21.663Z,3.33
2022-11-28T13:05:12.426Z,3.50
2022-11-28T13:07:49.809Z,4.77
2022-11-28T13:10:24.935Z,3.97
2022-11-28T13:12:59.416Z,3.73
2022-11-28T13:15:41.962Z,5.33
2022-11-28T13:18:20.845Z,5.17
2022-11-28T13:20:54.003Z,4.63
2022-11-28T13:23:28.499Z,5.47
2022-11-28T13:26:03.618Z,4.13
2022-11-28T13:28:37.401Z,5.10
2022-11-28T13:31:12.408Z,5.80
2022-11-28T13:33:49.737Z,4.30
2022-11-28T13:39:21.104Z,5.63
2022-11-28T13:42:43.908Z,7.00
2022-11-28T13:44:51.045Z,5.73
2022-11-28T13:47:31.839Z,8.67
2022-11-28T13:50:33.099Z,7.03
2022-11-28T13:53:02.245Z,7.33
2022-11-28T13:55:44.866Z,5.73
2022-11-28T13:58:24.871Z,5.90
2022-11-28T14:01:06.713Z,10.70
2022-11-28T14:03:44.191Z,7.43
2022-11-28T14:06:14.150Z,4.90
2022-11-28T14:08:44.376Z,4.83
2022-11-28T14:11:47.514Z,5.50
2022-11-28T14:14:39.423Z,5.90
2022-11-28T14:17:30.492Z,6.63
2022-11-28T14:20:12.619Z,6.30
2022-11-28T14:22:54.799Z,4.50
2022-11-28T14:25:27.920Z,6.53
2022-11-28T14:27:58.295Z,7.30
2022-11-28T14:30:33.116Z,5.37
2022-11-28T14:33:04.868Z,3.90
2022-11-28T14:36:06.896Z,4.43
2022-11-28T14:38:42.878Z,6.33
2022-11-28T14:41:13.867Z,5.70
2022-11-28T14:43:43.940Z,6.70
2022-11-28T14:46:26.692Z,10.70
2022-11-28T14:49:23.249Z,16.77
2022-11-28T14:52:38.381Z,14.73
2022-11-28T14:55:18.497Z,13.63
2022-11-28T14:57:56.101Z,13.67
2022-11-28T15:00:25.717Z,10.40
2022-11-28T15:03:09.184Z,15.30
2022-11-28T15:05:40.757Z,11.33
2022-11-28T15:08:47.999Z,11.20
2022-11-28T15:11:28.492Z,24.63
2022-11-28T15:14:08.764Z,12.83
2022-11-28T15:16:42.811Z,15.03
2022-11-28T15:19:21.287Z,13.03
2022-11-28T15:21:51.920Z,10.53
2022-11-28T15:24:29.687Z,7.87
2022-11-28T15:27:17.460Z,6.00
2022-11-28T15:29:54.371Z,5.80
2022-11-28T15:32:22.644Z,7.90
2022-11-28T15:34:55.261Z,9.40
2022-11-28T15:37:28.172Z,6.33
2022-11-28T15:39:56.231Z,4.93
2022-11-28T15:42:30.451Z,3.77
2022-11-28T15:45:00.818Z,3.73
2022-11-28T15:47:29.617Z,4.37
2022-11-28T15:50:02.800Z,3.90
2022-11-28T15:52:31.952Z,4.80
2022-11-28T15:55:00.033Z,4.70
2022-11-28T15:57:32.503Z,4.60
2022-11-28T16:00:00.472Z,3.60
2022-11-28T16:02:32.539Z,9.87
2022-11-28T16:05:06.447Z,4.83
2022-11-28T16:07:40.500Z,3.90
2022-11-28T16:10:22.807Z,5.10
2022-11-28T16:12:54.358Z,3.60
2022-11-28T16:15:24.652Z,2.47
2022-11-28T16:17:55.646Z,6.33
2022-11-28T16:20:26.606Z,3.07
2022-11-28T16:23:02.486Z,2.23
2022-11-28T16:25:31.198Z,2.53
2022-11-28T16:28:00.894Z,1.83
2022-11-28T16:30:37.425Z,2.30
2022-11-28T16:33:35.164Z,2.50
2022-11-28T16:36:19.006Z,2.43
2022-11-28T16:38:48.268Z,3.77
2022-11-28T16:41:18.600Z,3.40
2022-11-28T16:43:51.279Z,5.60
2022-11-28T16:46:22.735Z,3.43
2022-11-28T16:48:54.773Z,5.87
2022-11-28T16:51:34.819Z,2.60
2022-11-28T16:54:24.230Z,1.90
2022-11-28T16:56:57.460Z,2.23
2022-11-28T16:59:27.180Z,2.50
2022-11-28T17:01:55.261Z,1.70
2022-11-28T17:04:24.956Z,2.40
2022-11-28T17:06:54.789Z,2.10
2022-11-28T17:09:22.653Z,3.63
2022-11-28T17:11:56.552Z,2.20
2022-11-28T17:14:25.802Z,2.10
2022-11-28T17:16:53.667Z,2.07
2022-11-28T17:19:21.691Z,2.87
2022-11-28T17:21:51.680Z,3.47
2022-11-28T17:24:21.655Z,4.13
2022-11-28T17:26:51.468Z,3.47
2022-11-28T17:29:19.756Z,2.93
2022-11-28T17:31:50.218Z,1.60
2022-11-28T17:34:20.865Z,2.27
2022-11-28T17:36:49.028Z,3.30
2022-11-28T17:39:17.758Z,2.27
2022-11-28T17:41:46.823Z,6.70
2022-11-28T17:44:18.709Z,6.10
2022-11-28T17:46:48.256Z,3.13
2022-11-28T17:49:16.181Z,2.87
2022-11-28T17:51:44.595Z,3.00
2022-11-28T17:54:16.234Z,1.73
2022-11-28T17:56:44.354Z,2.60
2022-11-28T17:59:13.012Z,2.07
2022-11-28T18:01:41.071Z,2.13
2022-11-28T18:04:10.676Z,2.10
2022-11-28T18:06:38.894Z,1.53
2022-11-28T18:09:12.419Z,2.40
2022-11-28T18:11:41.079Z,2.00
2022-11-28T18:14:09.039Z,3.70
2022-11-28T18:16:37.032Z,3.57
2022-11-28T18:19:05.348Z,2.80
2022-11-28T18:21:34.576Z,2.20
2022-11-28T18:24:02.475Z,2.50
2022-11-28T18:26:30.386Z,2.33
2022-11-28T18:28:58.275Z,2.23
2022-11-28T18:31:28.564Z,2.23
2022-11-28T18:34:01.677Z,2.80
2022-11-28T18:36:31.563Z,6.53
2022-11-28T18:39:02.174Z,2.10
2022-11-28T18:41:30.934Z,2.70
2022-11-28T18:44:00.107Z,1.70
2022-11-28T18:46:29.092Z,2.93
2022-11-28T18:48:57.244Z,3.33
2022-11-28T18:51:27.456Z,2.37
2022-11-28T18:53:56.907Z,4.00
2022-11-28T18:56:27.044Z,3.43
2022-11-28T18:58:55.662Z,3.43
2022-11-28T19:01:28.316Z,2.50
2022-11-28T19:03:58.524Z,2.47
2022-11-28T19:06:26.641Z,2.33
2022-11-28T19:08:55.886Z,3.13
2022-11-28T19:11:24.154Z,2.33
2022-11-28T19:13:53.932Z,3.70
2022-11-28T19:16:24.056Z,1.70
2022-11-28T19:18:52.134Z,2.00
2022-11-28T19:21:23.388Z,2.70
2022-11-28T19:23:52.099Z,2.90
2022-11-28T19:26:21.914Z,3.27
2022-11-28T19:28:50.552Z,2.93
2022-11-28T19:31:21.426Z,2.60
2022-11-28T19:34:00.511Z,2.53
2022-11-28T19:36:29.695Z,2.20
2022-11-28T19:38:57.651Z,2.20
2022-11-28T19:41:25.530Z,1.77
2022-11-28T19:43:53.413Z,2.30
2022-11-28T19:46:22.665Z,2.03
2022-11-28T19:48:51.681Z,2.23
2022-11-28T19:51:20.414Z,2.47
2022-11-28T19:53:48.511Z,2.17
2022-11-28T19:56:18.418Z,2.00
2022-11-28T19:58:47.004Z,3.70
2022-11-28T20:01:17.083Z,1.70
2022-11-28T20:03:47.709Z,2.00
2022-11-28T20:06:17.316Z,2.10
2022-11-28T20:08:46.226Z,2.53
2022-11-28T20:11:16.074Z,2.00
2022-11-28T20:13:44.604Z,3.03
2022-11-28T20:16:13.845Z,1.93
2022-11-28T20:18:43.552Z,3.40
2022-11-28T20:21:14.735Z,4.80
2022-11-28T20:23:44.448Z,3.17
2022-11-28T20:26:13.516Z,2.20
2022-11-28T20:28:42.898Z,2.77
2022-11-28T20:31:19.264Z,3.80
2022-11-28T20:33:47.256Z,1.90
2022-11-28T20:36:19.730Z,2.27
2022-11-28T20:38:47.911Z,1.90
2022-11-28T20:41:17.179Z,2.30
2022-11-28T20:43:45.618Z,2.10
2022-11-28T20:46:16.001Z,1.73
2022-11-28T20:48:44.211Z,2.00
2022-11-28T20:51:13.325Z,3.07
2022-11-28T20:53:42.674Z,1.80
2022-11-28T20:56:13.912Z,2.37
2022-11-28T20:58:42.414Z,2.27
2022-11-28T21:01:15.143Z,2.53
2022-11-28T21:03:43.315Z,1.73
2022-11-28T21:06:11.446Z,1.60
2022-11-28T21:08:39.697Z,3.70
2022-11-28T21:11:15.147Z,1.60
2022-11-28T21:13:55.109Z,1.70
2022-11-28T21:16:27.535Z,2.50
2022-11-28T21:18:56.717Z,2.50
2022-11-28T21:21:27.479Z,2.00
2022-11-28T21:23:58.448Z,1.90
2022-11-28T21:26:30.576Z,3.70
2022-11-28T21:29:02.227Z,2.10
2022-11-28T21:31:32.712Z,2.27
2022-11-28T21:34:01.319Z,3.30
2022-11-28T21:36:30.806Z,2.77
2022-11-28T21:39:00.138Z,4.70
2022-11-28T21:41:31.091Z,2.10
2022-11-28T21:43:59.403Z,4.03
2022-11-28T21:46:28.397Z,1.83
2022-11-28T21:48:57.746Z,2.37
2022-11-28T21:51:28.426Z,2.73
2022-11-28T21:53:57.343Z,5.80
2022-11-28T21:56:25.702Z,2.27
2022-11-28T21:58:55.531Z,2.80
2022-11-28T22:01:23.447Z,3.40
2022-11-28T22:03:51.483Z,3.13
2022-11-28T22:06:21.757Z,3.90
2022-11-28T22:08:50.121Z,4.90
2022-11-28T22:11:18.328Z,3.63
2022-11-28T22:13:46.941Z,2.33
2022-11-28T22:16:18.386Z,8.10
2022-11-28T22:18:47.774Z,4.07
2022-11-28T22:24:04.671Z,3.43
2022-11-28T22:26:32.628Z,4.80
2022-11-28T22:29:00.969Z,6.40
2022-11-28T22:31:30.589Z,5.00
2022-11-28T22:33:58.515Z,5.17
2022-11-28T22:36:26.445Z,3.37
2022-11-28T22:38:56.407Z,5.40
2022-11-28T22:41:28.766Z,3.93
2022-11-28T22:43:59.479Z,3.80
2022-11-28T22:46:27.924Z,6.40
2022-11-28T22:48:57.204Z,3.73
2022-11-28T22:51:26.683Z,3.70
2022-11-28T22:53:55.452Z,4.37
2022-11-28T22:56:24.090Z,5.33
2022-11-28T22:58:52.345Z,3.97
2022-11-28T23:01:22.569Z,4.87
2022-11-28T23:03:50.476Z,5.53
2022-11-28T23:06:21.761Z,5.33
2022-11-28T23:08:50.205Z,4.07
2022-11-28T23:11:20.464Z,4.97
2022-11-28T23:13:49.611Z,7.07
2022-11-28T23:16:19.679Z,12.70
2022-11-28T23:18:50.257Z,11.60
2022-11-28T23:21:20.872Z,5.70
2022-11-28T23:23:49.453Z,6.70
2022-11-28T23:26:19.266Z,6.70
2022-11-28T23:28:47.526Z,10.63
2022-11-28T23:31:17.360Z,4.60
2022-11-28T23:33:45.878Z,4.20
2022-11-28T23:36:15.561Z,7.87
2022-11-28T23:38:46.003Z,9.57
2022-11-28T23:41:14.302Z,5.87
2022-11-28T23:43:42.575Z,5.40
2022-11-28T23:46:11.714Z,6.30
2022-11-28T23:48:40.012Z,6.03
2022-11-28T23:51:08.480Z,7.80
2022-11-28T23:53:37.698Z,7.50
2022-11-28T23:56:09.535Z,6.30
2022-11-28T23:58:38.046Z,5.37
